Warren Jr — WDH4232 — position and weather

sailwx.info

Track history (hours):
 
Tides and Currents Weather Stations Pressure Air Temp Water Temp Dewpoint Dewpoint Depression Visibility Wind Speed Wind Dir Waves Ship Positions

Warren Jr

Owner: Warren Jr, LLC, Cape May, NJ. More information available from US FCC via Universal Licensing System and Coast Guard Vessel Documentation Center.

Last reported at 2018-Apr-21 08:00 UTC. Time now 2018-Apr-21 08:00 UTC.
Position N 42°23' W 071°03'.

Length 46 m; draft 3.2 m.

MMSI: 367615560.

Date/timePositionNaut miles runAvg speedWind from/ knotsBaromVisibWave heightAir tempDewpointWater temp
2018-Apr-21 08:00N 42°23' W 071°03'0 0.0
2018-Apr-21 07:30N 42°23' W 071°03'0 0.0
2018-Apr-21 07:00N 42°23' W 071°03'0 0.0
2018-Apr-21 06:30N 42°23' W 071°03'0 0.0
2018-Apr-21 06:00N 42°23' W 071°03'0 0.0
2018-Apr-21 05:30N 42°23' W 071°03'0 0.0
2018-Apr-21 05:00N 42°23' W 071°03'0 0.0
2018-Apr-21 04:30N 42°23' W 071°03'0 0.0
2018-Apr-21 04:01N 42°23' W 071°03'0 0.0
2018-Apr-21 03:30N 42°23' W 071°03'0 0.0
2018-Apr-21 03:00N 42°23' W 071°03'0 0.0
2018-Apr-21 02:30N 42°23' W 071°03'0 0.0
2018-Apr-21 02:00N 42°23' W 071°03'0 0.0
2018-Apr-21 01:30N 42°23' W 071°03'0 0.0
2018-Apr-21 01:00N 42°23' W 071°03'0 0.0
2018-Apr-21 00:30N 42°23' W 071°03'0 0.0
2018-Apr-21 00:00N 42°23' W 071°03'0 0.0
2018-Apr-20 23:30N 42°23' W 071°03'0 0.0
2018-Apr-20 23:00N 42°23' W 071°03'0 0.0
2018-Apr-20 22:30N 42°23' W 071°03'0 0.0
2018-Apr-20 21:59N 42°23' W 071°03'0 0.0
2018-Apr-20 21:28N 42°23' W 071°03'0 0.0
2018-Apr-20 21:00N 42°23' W 071°03'0 0.7
2018-Apr-20 20:30N 42°23' W 071°03'0 0.0
2018-Apr-20 19:58N 42°23' W 071°03'0 0.0
2018-Apr-20 19:30N 42°23' W 071°03'1 1.4
2018-Apr-20 18:59N 42°22' W 071°03'4 7.5
2018-Apr-20 18:25N 42°20' W 070°58'4 8.4
2018-Apr-20 17:59N 42°22' W 070°54'4 8.8
2018-Apr-20 17:30N 42°26' W 070°50'4 8.5
2018-Apr-20 17:01N 42°29' W 070°47'0 0.5
2018-Apr-20 16:30N 42°29' W 070°47'0 0.2
2018-Apr-20 16:00N 42°29' W 070°47'0 0.1
2018-Apr-20 15:30N 42°29' W 070°47'0 0.5
2018-Apr-20 15:00N 42°29' W 070°46'0 0.6
2018-Apr-20 14:30N 42°29' W 070°47'4 8.1
2018-Apr-20 14:00N 42°29' W 070°41'4 8.4
2018-Apr-20 13:30N 42°28' W 070°36'1 1.7
2018-Apr-20 13:00N 42°27' W 070°37'4 8.4
2018-Apr-20 12:31N 42°26' W 070°42'4 8.1
2018-Apr-20 12:00N 42°24' W 070°47'4 8.6
2018-Apr-20 11:30N 42°23' W 070°53'5 8.8
2018-Apr-20 10:53N 42°20' W 070°59'3 8.6
2018-Apr-20 10:30N 42°22' W 071°03'1 2.1
2018-Apr-20 09:59N 42°23' W 071°03'0 0.0
2018-Apr-20 09:30N 42°23' W 071°03'0 0.0
2018-Apr-20 09:00N 42°23' W 071°03'0 0.0
2018-Apr-20 08:29N 42°23' W 071°03'0 0.0
2018-Apr-20 07:57N 42°23' W 071°03'0 0.0
2018-Apr-20 07:30N 42°23' W 071°03'0 0.0
2018-Apr-20 07:00N 42°23' W 071°03'0 0.0
2018-Apr-20 06:30N 42°23' W 071°03'0 0.0
2018-Apr-20 06:00N 42°23' W 071°03'0 0.0
2018-Apr-20 05:30N 42°23' W 071°03'0 0.0
2018-Apr-20 05:00N 42°23' W 071°03'0 0.0
2018-Apr-20 04:31N 42°23' W 071°03'0 0.0
2018-Apr-20 04:01N 42°23' W 071°03'0 0.0
2018-Apr-20 03:30N 42°23' W 071°03'0 0.0
2018-Apr-20 03:01N 42°23' W 071°03'0 0.0
2018-Apr-20 02:30N 42°23' W 071°03'0 0.0
2018-Apr-20 02:00N 42°23' W 071°03'0 0.0
2018-Apr-20 01:31N 42°23' W 071°03'0 0.0
2018-Apr-20 01:00N 42°23' W 071°03'0 0.0
2018-Apr-20 00:30N 42°23' W 071°03'0 0.0
2018-Apr-20 00:01N 42°23' W 071°03'0 0.0
2018-Apr-19 23:30N 42°23' W 071°03'0 0.0
2018-Apr-19 22:59N 42°23' W 071°03'1 1.2
2018-Apr-19 22:31N 42°22' W 071°03'4 7.3
2018-Apr-19 22:00N 42°20' W 070°59'4 7.0
2018-Apr-19 21:30N 42°22' W 070°55'4 8.6
2018-Apr-19 20:59N 42°24' W 070°50'4 8.8
2018-Apr-19 20:30N 42°26' W 070°45'4 9.0
2018-Apr-19 20:00N 42°28' W 070°39'2 4.7
2018-Apr-19 19:30N 42°29' W 070°36'0 0.0
2018-Apr-19 19:00N 42°29' W 070°36'0 0.0
2018-Apr-19 18:30N 42°29' W 070°36'0 0.1
2018-Apr-19 18:00N 42°29' W 070°36'0 0.0
2018-Apr-19 17:30N 42°29' W 070°36'0 0.0
2018-Apr-19 17:00N 42°29' W 070°36'0 0.0
2018-Apr-19 16:28N 42°29' W 070°36'0 0.0
2018-Apr-19 16:00N 42°29' W 070°36'0 0.0
2018-Apr-19 15:30N 42°29' W 070°36'0 0.0
2018-Apr-19 15:00N 42°29' W 070°36'0 0.0
2018-Apr-19 14:30N 42°29' W 070°36'0 0.2
2018-Apr-19 14:00N 42°29' W 070°36'1 1.8
2018-Apr-19 13:30N 42°29' W 070°37'4 8.7
2018-Apr-19 13:00N 42°27' W 070°43'4 8.7
2018-Apr-19 12:30N 42°25' W 070°48'4 8.6
2018-Apr-19 12:01N 42°23' W 070°53'4 8.6
2018-Apr-19 11:29N 42°20' W 070°58'4 8.4
2018-Apr-19 11:00N 42°22' W 071°03'1 0.2
2018-Apr-19 05:59N 42°23' W 071°03'0 0.0
2018-Apr-19 05:29N 42°23' W 071°03'0 0.0
2018-Apr-19 04:41N 42°23' W 071°03'0 0.0
2018-Apr-19 02:14N 42°23' W 071°03'0 0.0
2018-Apr-19 00:50N 42°23' W 071°03'0 0.0
2018-Apr-18 15:29N 42°23' W 071°03'0 0.2
2018-Apr-18 13:51N 42°23' W 071°03'0 0.2
2018-Apr-18 13:30N 42°23' W 071°03'2 2.7
2018-Apr-18 12:55N 42°22' W 071°02'0 0.0
2018-Apr-18 12:28N 42°22' W 071°02'0 0.0
2018-Apr-18 11:55N 42°22' W 071°02'0 0.0
2018-Apr-18 11:25N 42°22' W 071°02'0 0.0
2018-Apr-18 10:57N 42°22' W 071°02'1 2.6
2018-Apr-18 10:27N 42°23' W 071°03'0 0.0
2018-Apr-18 09:52N 42°23' W 071°03'0 0.0
2018-Apr-18 09:30N 42°23' W 071°03'0 0.0
2018-Apr-18 09:00N 42°23' W 071°03'0 0.0
2018-Apr-18 08:29N 42°23' W 071°03'0 0.0
2018-Apr-18 08:00N 42°23' W 071°03'0 0.0
2018-Apr-18 07:29N 42°23' W 071°03'0 0.0
2018-Apr-18 06:53N 42°23' W 071°03'0 0.0
2018-Apr-18 06:23N 42°23' W 071°03'0 0.0
2018-Apr-18 05:56N 42°23' W 071°03'0 0.0
2018-Apr-18 05:28N 42°23' W 071°03'0 0.0
2018-Apr-18 04:58N 42°23' W 071°03'0 0.0
2018-Apr-18 04:29N 42°23' W 071°03'0 0.0
2018-Apr-18 03:55N 42°23' W 071°03'0 0.0
2018-Apr-18 03:28N 42°23' W 071°03'0 0.0
2018-Apr-18 02:53N 42°23' W 071°03'0 0.0
2018-Apr-18 02:25N 42°23' W 071°03'0 0.0
2018-Apr-18 01:59N 42°23' W 071°03'0 0.0
2018-Apr-18 01:29N 42°23' W 071°03'0 0.0
2018-Apr-18 00:43N 42°23' W 071°03'0 0.0
2018-Apr-18 00:28N 42°23' W 071°03'0 0.0
2018-Apr-17 23:52N 42°23' W 071°03'0 0.0
2018-Apr-17 23:22N 42°23' W 071°03'0 0.0
2018-Apr-17 22:58N 42°23' W 071°03'0 0.0
2018-Apr-17 22:19N 42°23' W 071°03'0 0.0
2018-Apr-17 21:13N 42°23' W 071°03'0 0.0
2018-Apr-17 20:59N 42°23' W 071°03'0 0.0
2018-Apr-17 20:09N 42°23' W 071°03'0 0.0
2018-Apr-17 19:58N 42°23' W 071°03'0 0.0
2018-Apr-17 19:28N 42°23' W 071°03'0 0.0
2018-Apr-17 18:58N 42°23' W 071°03'0 0.0
2018-Apr-17 18:28N 42°23' W 071°03'0 0.0
2018-Apr-17 17:58N 42°23' W 071°03'0 0.0
2018-Apr-17 17:28N 42°23' W 071°03'0 0.0
2018-Apr-17 16:55N 42°23' W 071°03'0 0.0
2018-Apr-17 16:28N 42°23' W 071°03'0 0.0
2018-Apr-17 15:58N 42°23' W 071°03'0 0.0
2018-Apr-17 15:28N 42°23' W 071°03'0 0.0
2018-Apr-17 14:58N 42°23' W 071°03'0 0.0
2018-Apr-17 14:28N 42°23' W 071°03'0 0.5
2018-Apr-17 14:00N 42°23' W 071°03'0 0.4
2018-Apr-17 13:28N 42°23' W 071°03'0 0.0
2018-Apr-17 12:59N 42°23' W 071°03'0 0.0
2018-Apr-17 12:29N 42°23' W 071°03'0 0.0
2018-Apr-17 11:59N 42°23' W 071°03'0 0.0
2018-Apr-17 11:30N 42°23' W 071°03'0 0.2
2018-Apr-17 09:57N 42°23' W 071°03'0 0.0
2018-Apr-17 08:15N 42°23' W 071°03'0 0.0
2018-Apr-17 08:00N 42°23' W 071°03'0 0.0
2018-Apr-17 07:30N 42°23' W 071°03'0 0.0
2018-Apr-17 07:00N 42°23' W 071°03'0 0.0
2018-Apr-17 06:30N 42°23' W 071°03'0 0.0
2018-Apr-17 06:00N 42°23' W 071°03'0 0.0
2018-Apr-17 05:27N 42°23' W 071°03'0 0.0
2018-Apr-17 05:00N 42°23' W 071°03'0 0.0
2018-Apr-17 04:30N 42°23' W 071°03'0 0.0
2018-Apr-17 04:00N 42°23' W 071°03'0 0.0
2018-Apr-17 03:30N 42°23' W 071°03'0 0.0
2018-Apr-17 03:00N 42°23' W 071°03'0 0.0
2018-Apr-17 02:30N 42°23' W 071°03'0 0.0
2018-Apr-17 02:00N 42°23' W 071°03'0 0.0
2018-Apr-17 01:30N 42°23' W 071°03'0 0.0
2018-Apr-17 01:00N 42°23' W 071°03'0 0.0
2018-Apr-17 00:30N 42°23' W 071°03'0 0.0
2018-Apr-17 00:00N 42°23' W 071°03'0 0.0
2018-Apr-16 23:30N 42°23' W 071°03'0 0.0
2018-Apr-16 23:00N 42°23' W 071°03'0 0.0
2018-Apr-16 22:30N 42°23' W 071°03'0 0.0
2018-Apr-16 22:00N 42°23' W 071°03'0 0.0
2018-Apr-16 21:30N 42°23' W 071°03'0 0.0
2018-Apr-16 21:00N 42°23' W 071°03'0 0.0
2018-Apr-16 20:30N 42°23' W 071°03'0 0.0
2018-Apr-16 20:00N 42°23' W 071°03'0 0.0
2018-Apr-16 19:30N 42°23' W 071°03'0 0.0
2018-Apr-16 19:00N 42°23' W 071°03'0 0.0
2018-Apr-16 18:30N 42°23' W 071°03'0 0.0
2018-Apr-16 18:00N 42°23' W 071°03'0 0.0
2018-Apr-16 17:30N 42°23' W 071°03'0 0.0
2018-Apr-16 17:00N 42°23' W 071°03'0 0.0
2018-Apr-16 16:30N 42°23' W 071°03'0 0.0
2018-Apr-16 16:00N 42°23' W 071°03'0 0.0
2018-Apr-16 15:30N 42°23' W 071°03'0 0.0
2018-Apr-16 15:00N 42°23' W 071°03'0 0.0
2018-Apr-16 14:30N 42°23' W 071°03'0 0.0
2018-Apr-16 14:00N 42°23' W 071°03'0 0.0
2018-Apr-16 13:30N 42°23' W 071°03'0 0.0
2018-Apr-16 13:00N 42°23' W 071°03'0 0.0
2018-Apr-16 12:30N 42°23' W 071°03'0 0.0
2018-Apr-16 12:00N 42°23' W 071°03'0 0.0
2018-Apr-16 11:30N 42°23' W 071°03'0 0.0
2018-Apr-16 11:00N 42°23' W 071°03'0 0.0
2018-Apr-16 10:30N 42°23' W 071°03'0 0.0
2018-Apr-16 09:57N 42°23' W 071°03'0 0.0
2018-Apr-16 09:30N 42°23' W 071°03'0 0.0
2018-Apr-16 09:00N 42°23' W 071°03'0 0.0
2018-Apr-16 08:30N 42°23' W 071°03'0 0.0
2018-Apr-16 08:00N 42°23' W 071°03'0 0.0
2018-Apr-16 07:30N 42°23' W 071°03'0 0.0
2018-Apr-16 07:00N 42°23' W 071°03'0 0.0
2018-Apr-16 06:31N 42°23' W 071°03'0 0.0
2018-Apr-16 06:00N 42°23' W 071°03'0 0.0
2018-Apr-16 05:30N 42°23' W 071°03'0 0.0
2018-Apr-16 05:00N 42°23' W 071°03'0 0.0
2018-Apr-16 04:30N 42°23' W 071°03'0 0.0
2018-Apr-16 04:00N 42°23' W 071°03'0 0.0
2018-Apr-16 03:30N 42°23' W 071°03'0 0.0
2018-Apr-16 03:00N 42°23' W 071°03'0 0.0
2018-Apr-16 02:30N 42°23' W 071°03'0 0.0
2018-Apr-16 02:00N 42°23' W 071°03'0 0.0
2018-Apr-16 01:30N 42°23' W 071°03'0 0.0
2018-Apr-16 01:00N 42°23' W 071°03'0 0.0
2018-Apr-16 00:30N 42°23' W 071°03'0 0.0
2018-Apr-16 00:01N 42°23' W 071°03'0 0.0
2018-Apr-15 23:30N 42°23' W 071°03'0 0.0
2018-Apr-15 23:00N 42°23' W 071°03'0 0.0
2018-Apr-15 22:30N 42°23' W 071°03'0 0.0
2018-Apr-15 22:00N 42°23' W 071°03'0 0.0
2018-Apr-15 21:30N 42°23' W 071°03'0 0.0
2018-Apr-15 21:00N 42°23' W 071°03'0 0.0
2018-Apr-15 20:30N 42°23' W 071°03'0 0.0
2018-Apr-15 20:00N 42°23' W 071°03'0 0.0
2018-Apr-15 19:30N 42°23' W 071°03'0 0.0
2018-Apr-15 19:00N 42°23' W 071°03'0 0.0
2018-Apr-15 18:30N 42°23' W 071°03'0 0.0
2018-Apr-15 18:00N 42°23' W 071°03'0 0.0
2018-Apr-15 17:30N 42°23' W 071°03'0 0.0
2018-Apr-15 17:00N 42°23' W 071°03'0 0.0
2018-Apr-15 16:30N 42°23' W 071°03'0 0.0
2018-Apr-15 16:00N 42°23' W 071°03'0 0.0
2018-Apr-15 15:30N 42°23' W 071°03'0 0.0
2018-Apr-15 15:00N 42°23' W 071°03'0 0.0
2018-Apr-15 14:30N 42°23' W 071°03'0 0.0
2018-Apr-15 14:00N 42°23' W 071°03'0 0.0
2018-Apr-15 13:30N 42°23' W 071°03'0 0.0
2018-Apr-15 13:00N 42°23' W 071°03'0 0.0
2018-Apr-15 12:30N 42°23' W 071°03'0 0.0
2018-Apr-15 12:00N 42°23' W 071°03'0 0.0
2018-Apr-15 11:30N 42°23' W 071°03'0 0.0
2018-Apr-15 11:00N 42°23' W 071°03'0 0.0
2018-Apr-15 10:30N 42°23' W 071°03'0 0.0
2018-Apr-15 10:00N 42°23' W 071°03'0 0.0
2018-Apr-15 09:30N 42°23' W 071°03'0 0.0
2018-Apr-15 08:57N 42°23' W 071°03'0 0.0
2018-Apr-15 08:30N 42°23' W 071°03'0 0.0
2018-Apr-15 08:00N 42°23' W 071°03'0 0.0
2018-Apr-15 07:30N 42°23' W 071°03'0 0.0
2018-Apr-15 06:57N 42°23' W 071°03'0 0.0
2018-Apr-15 06:30N 42°23' W 071°03'0 0.0
2018-Apr-15 06:00N 42°23' W 071°03'0 0.0
2018-Apr-15 05:30N 42°23' W 071°03'0 0.0
2018-Apr-15 05:00N 42°23' W 071°03'0 0.0
2018-Apr-15 04:30N 42°23' W 071°03'0 0.0
2018-Apr-15 04:00N 42°23' W 071°03'0 0.0
2018-Apr-15 03:30N 42°23' W 071°03'0 0.0
2018-Apr-15 03:00N 42°23' W 071°03'0 0.0
2018-Apr-15 02:30N 42°23' W 071°03'0 0.0
2018-Apr-15 02:00N 42°23' W 071°03'0 0.0
2018-Apr-15 01:30N 42°23' W 071°03'0 0.0
2018-Apr-15 01:00N 42°23' W 071°03'0 0.0
2018-Apr-15 00:27N 42°23' W 071°03'0 0.0
2018-Apr-15 00:00N 42°23' W 071°03'0 0.0
2018-Apr-14 23:30N 42°23' W 071°03'0 0.0
2018-Apr-14 23:00N 42°23' W 071°03'0 0.0
2018-Apr-14 22:30N 42°23' W 071°03'0 0.0
2018-Apr-14 22:00N 42°23' W 071°03'0 0.0
2018-Apr-14 21:30N 42°23' W 071°03'0 0.0
2018-Apr-14 21:00N 42°23' W 071°03'0 0.0
2018-Apr-14 20:30N 42°23' W 071°03'0 0.0
2018-Apr-14 20:00N 42°23' W 071°03'0 0.0
2018-Apr-14 19:30N 42°23' W 071°03'0 0.0
2018-Apr-14 19:00N 42°23' W 071°03'0 0.0
2018-Apr-14 18:30N 42°23' W 071°03'0 0.0
2018-Apr-14 18:00N 42°23' W 071°03'0 0.0
2018-Apr-14 17:27N 42°23' W 071°03'0 0.0
2018-Apr-14 17:00N 42°23' W 071°03'0 0.0
2018-Apr-14 16:30N 42°23' W 071°03'0 0.0
2018-Apr-14 16:00N 42°23' W 071°03'0 0.0
2018-Apr-14 15:30N 42°23' W 071°03'0 0.0
2018-Apr-14 15:00N 42°23' W 071°03'0 0.0
2018-Apr-14 14:30N 42°23' W 071°03'0 0.0
2018-Apr-14 14:00N 42°23' W 071°03'0 0.0
2018-Apr-14 13:30N 42°23' W 071°03'0 0.0
2018-Apr-14 13:00N 42°23' W 071°03'0 0.0
2018-Apr-14 12:30N 42°23' W 071°03'0 0.0
2018-Apr-14 12:00N 42°23' W 071°03'0 0.0
2018-Apr-14 11:30N 42°23' W 071°03'0 0.0
2018-Apr-14 11:00N 42°23' W 071°03'0 0.0
2018-Apr-14 10:30N 42°23' W 071°03'0 0.0
2018-Apr-14 09:57N 42°23' W 071°03'0 0.0
2018-Apr-14 09:30N 42°23' W 071°03'0 0.0
2018-Apr-14 09:00N 42°23' W 071°03'0 0.0
2018-Apr-14 08:30N 42°23' W 071°03'0 0.0
2018-Apr-14 08:00N 42°23' W 071°03'0 0.0
2018-Apr-14 07:30N 42°23' W 071°03'0 0.0
2018-Apr-14 07:00N 42°23' W 071°03'0 0.0
2018-Apr-14 06:30N 42°23' W 071°03'0 0.0
2018-Apr-14 06:00N 42°23' W 071°03'0 0.0
2018-Apr-14 05:30N 42°23' W 071°03'0 0.0
2018-Apr-14 05:00N 42°23' W 071°03'0 0.0
2018-Apr-14 04:30N 42°23' W 071°03'0 0.0
2018-Apr-14 04:00N 42°23' W 071°03'0 0.0
2018-Apr-14 03:27N 42°23' W 071°03'0 0.0
2018-Apr-14 03:00N 42°23' W 071°03'0 0.0
2018-Apr-14 02:30N 42°23' W 071°03'0 0.0
2018-Apr-14 02:00N 42°23' W 071°03'0 0.0
2018-Apr-14 01:30N 42°23' W 071°03'0 0.0
2018-Apr-14 01:00N 42°23' W 071°03'0 0.0
2018-Apr-14 00:30N 42°23' W 071°03'0 0.0
2018-Apr-14 00:00N 42°23' W 071°03'0 0.0
2018-Apr-13 23:30N 42°23' W 071°03'0 0.0
2018-Apr-13 23:00N 42°23' W 071°03'0 0.0
2018-Apr-13 22:30N 42°23' W 071°03'0 0.0
2018-Apr-13 22:00N 42°23' W 071°03'0 0.0
2018-Apr-13 21:30N 42°23' W 071°03'0 0.0
2018-Apr-13 21:00N 42°23' W 071°03'0 0.0
2018-Apr-13 20:30N 42°23' W 071°03'0 0.0
2018-Apr-13 20:00N 42°23' W 071°03'0 0.0
2018-Apr-13 19:30N 42°23' W 071°03'0 0.0
2018-Apr-13 19:00N 42°23' W 071°03'0 0.0
2018-Apr-13 18:30N 42°23' W 071°03'0 0.0
2018-Apr-13 18:00N 42°23' W 071°03'0 0.0
2018-Apr-13 17:30N 42°23' W 071°03'0 0.0
2018-Apr-13 17:00N 42°23' W 071°03'0 0.0
2018-Apr-13 16:30N 42°23' W 071°03'0 0.0
2018-Apr-13 16:00N 42°23' W 071°03'0 0.0
2018-Apr-13 15:27N 42°23' W 071°03'0 0.0
2018-Apr-13 15:00N 42°23' W 071°03'0 0.0
2018-Apr-13 14:30N 42°23' W 071°03'0 0.0
2018-Apr-13 14:00N 42°23' W 071°03'0 0.0
2018-Apr-13 13:30N 42°23' W 071°03'0 0.0
2018-Apr-13 13:00N 42°23' W 071°03'0 0.0
2018-Apr-13 12:30N 42°23' W 071°03'0 0.0
2018-Apr-13 12:00N 42°23' W 071°03'0 0.0
2018-Apr-13 11:30N 42°23' W 071°03'0 0.0
2018-Apr-13 11:00N 42°23' W 071°03'0 0.0
2018-Apr-13 10:30N 42°23' W 071°03'0 0.0
2018-Apr-13 10:00N 42°23' W 071°03'0 0.0
2018-Apr-13 09:27N 42°23' W 071°03'0 0.0
2018-Apr-13 09:00N 42°23' W 071°03'0 0.0
2018-Apr-13 08:30N 42°23' W 071°03'0 0.0
2018-Apr-13 08:00N 42°23' W 071°03'0 0.0
2018-Apr-13 07:30N 42°23' W 071°03'0 0.0
2018-Apr-13 07:00N 42°23' W 071°03'0 0.0
2018-Apr-13 06:30N 42°23' W 071°03'0 0.0
2018-Apr-13 05:57N 42°23' W 071°03'0 0.0
2018-Apr-13 05:30N 42°23' W 071°03'0 0.0
2018-Apr-13 05:00N 42°23' W 071°03'0 0.0
2018-Apr-13 04:30N 42°23' W 071°03'0 0.0
2018-Apr-13 04:00N 42°23' W 071°03'0 0.0
2018-Apr-13 03:30N 42°23' W 071°03'0 0.0
2018-Apr-13 03:00N 42°23' W 071°03'0 0.0
2018-Apr-13 02:30N 42°23' W 071°03'0 0.0
2018-Apr-13 02:00N 42°23' W 071°03'0 0.0
2018-Apr-13 01:30N 42°23' W 071°03'0 0.0
2018-Apr-13 01:00N 42°23' W 071°03'0 0.0
2018-Apr-13 00:30N 42°23' W 071°03'0 0.0
2018-Apr-13 00:00N 42°23' W 071°03'0 0.0
2018-Apr-12 23:30N 42°23' W 071°03'0 0.0
2018-Apr-12 23:00N 42°23' W 071°03'0 0.0
2018-Apr-12 22:30N 42°23' W 071°03'0 0.0
2018-Apr-12 21:57N 42°23' W 071°03'0 0.0
2018-Apr-12 21:30N 42°23' W 071°03'0 0.0
2018-Apr-12 20:57N 42°23' W 071°03'0 0.0
2018-Apr-12 20:30N 42°23' W 071°03'0 0.0
2018-Apr-12 20:00N 42°23' W 071°03'0 0.0
2018-Apr-12 19:30N 42°23' W 071°03'0 0.0
2018-Apr-12 19:00N 42°23' W 071°03'0 0.0
2018-Apr-12 18:30N 42°23' W 071°03'0 0.0
2018-Apr-12 18:00N 42°23' W 071°03'0 0.0
2018-Apr-12 17:30N 42°23' W 071°03'0 0.0
2018-Apr-12 17:00N 42°23' W 071°03'0 0.0
2018-Apr-12 16:30N 42°23' W 071°03'0 0.0
2018-Apr-12 16:00N 42°23' W 071°03'0 0.0
2018-Apr-12 15:30N 42°23' W 071°03'0 0.0
2018-Apr-12 15:00N 42°23' W 071°03'0 0.0
2018-Apr-12 14:27N 42°23' W 071°03'0 0.0
2018-Apr-12 14:00N 42°23' W 071°03'0 0.0
2018-Apr-12 13:30N 42°23' W 071°03'0 0.0
2018-Apr-12 13:00N 42°23' W 071°03'0 0.0
2018-Apr-12 12:30N 42°23' W 071°03'0 0.0
2018-Apr-12 12:00N 42°23' W 071°03'0 0.0
2018-Apr-12 11:30N 42°23' W 071°03'0 0.0
2018-Apr-12 11:00N 42°23' W 071°03'0 0.0
2018-Apr-12 10:30N 42°23' W 071°03'0 0.0
2018-Apr-12 10:00N 42°23' W 071°03'0 0.0
2018-Apr-12 09:30N 42°23' W 071°03'0 0.0
2018-Apr-12 09:00N 42°23' W 071°03'0 0.0
2018-Apr-12 08:30N 42°23' W 071°03'0 0.0
2018-Apr-12 08:00N 42°23' W 071°03'0 0.0
2018-Apr-12 07:30N 42°23' W 071°03'0 0.0
2018-Apr-12 07:00N 42°23' W 071°03'0 0.0
2018-Apr-12 06:30N 42°23' W 071°03'0 0.0
2018-Apr-12 06:00N 42°23' W 071°03'0 0.0
2018-Apr-12 05:30N 42°23' W 071°03'0 0.0
2018-Apr-12 05:00N 42°23' W 071°03'0 0.0
2018-Apr-12 04:30N 42°23' W 071°03'0 0.0
2018-Apr-12 04:00N 42°23' W 071°03'0 0.0
2018-Apr-12 03:30N 42°23' W 071°03'0 0.0
2018-Apr-12 03:00N 42°23' W 071°03'0 0.0
2018-Apr-12 02:30N 42°23' W 071°03'0 0.0
2018-Apr-12 02:00N 42°23' W 071°03'0 0.0
2018-Apr-12 01:30N 42°23' W 071°03'0 0.0
2018-Apr-12 01:00N 42°23' W 071°03'0 0.0
2018-Apr-12 00:30N 42°23' W 071°03'0 0.0
2018-Apr-12 00:00N 42°23' W 071°03'0 0.0
2018-Apr-11 23:30N 42°23' W 071°03'0 0.0
2018-Apr-11 23:00N 42°23' W 071°03'0 0.0
2018-Apr-11 22:30N 42°23' W 071°03'0 0.0
2018-Apr-11 22:00N 42°23' W 071°03'0 0.0
2018-Apr-11 21:30N 42°23' W 071°03'0 0.0
2018-Apr-11 21:00N 42°23' W 071°03'0 0.0
2018-Apr-11 20:30N 42°23' W 071°03'0 0.0
2018-Apr-11 20:00N 42°23' W 071°03'0 0.0
2018-Apr-11 19:27N 42°23' W 071°03'0 0.0
2018-Apr-11 19:00N 42°23' W 071°03'0 0.0
2018-Apr-11 18:30N 42°23' W 071°03'0 0.0
2018-Apr-11 18:00N 42°23' W 071°03'0 0.0
2018-Apr-11 17:30N 42°23' W 071°03'0 0.0
2018-Apr-11 17:00N 42°23' W 071°03'0 0.0
2018-Apr-11 16:30N 42°23' W 071°03'0 0.0
2018-Apr-11 16:00N 42°23' W 071°03'0 0.0
2018-Apr-11 15:27N 42°23' W 071°03'0 0.0
2018-Apr-11 15:00N 42°23' W 071°03'0 0.0
2018-Apr-11 14:30N 42°23' W 071°03'0 0.0
2018-Apr-11 14:00N 42°23' W 071°03'0 0.0
2018-Apr-11 13:30N 42°23' W 071°03'0 0.0
2018-Apr-11 13:00N 42°23' W 071°03'0 0.0
2018-Apr-11 12:30N 42°23' W 071°03'0 0.0
2018-Apr-11 12:00N 42°23' W 071°03'0 0.0
2018-Apr-11 11:30N 42°23' W 071°03'0 0.0
2018-Apr-11 11:00N 42°23' W 071°03'0 0.0
2018-Apr-11 10:30N 42°23' W 071°03'0 0.0
2018-Apr-11 10:00N 42°23' W 071°03'0 0.0
2018-Apr-11 09:27N 42°23' W 071°03'0 0.0
2018-Apr-11 08:57N 42°23' W 071°03'0 0.0
2018-Apr-11 08:27N 42°23' W 071°03'  
Track history (hours):
 
Tides and Currents Weather Stations Pressure Air Temp Water Temp Dewpoint Dewpoint Depression Visibility Wind Speed Wind Dir Waves Ship Positions

Warren Jr

Owner: Warren Jr, LLC, Cape May, NJ. More information available from US FCC via Universal Licensing System and Coast Guard Vessel Documentation Center.

Last reported at 2018-Apr-21 08:00 UTC. Time now 2018-Apr-21 08:00 UTC.
Position N 42°23' W 071°03'.

Length 46 m; draft 3.2 m.

MMSI: 367615560.

Date/timePositionNaut miles runAvg speedWind from/ knotsBaromVisibWave heightAir tempDewpointWater temp
2018-Apr-21 08:00N 42°23' W 071°03'0 0.0
2018-Apr-21 07:30N 42°23' W 071°03'0 0.0
2018-Apr-21 07:00N 42°23' W 071°03'0 0.0
2018-Apr-21 06:30N 42°23' W 071°03'0 0.0
2018-Apr-21 06:00N 42°23' W 071°03'0 0.0
2018-Apr-21 05:30N 42°23' W 071°03'0 0.0
2018-Apr-21 05:00N 42°23' W 071°03'0 0.0
2018-Apr-21 04:30N 42°23' W 071°03'0 0.0
2018-Apr-21 04:01N 42°23' W 071°03'0 0.0
2018-Apr-21 03:30N 42°23' W 071°03'0 0.0
2018-Apr-21 03:00N 42°23' W 071°03'0 0.0
2018-Apr-21 02:30N 42°23' W 071°03'0 0.0
2018-Apr-21 02:00N 42°23' W 071°03'0 0.0
2018-Apr-21 01:30N 42°23' W 071°03'0 0.0
2018-Apr-21 01:00N 42°23' W 071°03'0 0.0
2018-Apr-21 00:30N 42°23' W 071°03'0 0.0
2018-Apr-21 00:00N 42°23' W 071°03'0 0.0
2018-Apr-20 23:30N 42°23' W 071°03'0 0.0
2018-Apr-20 23:00N 42°23' W 071°03'0 0.0
2018-Apr-20 22:30N 42°23' W 071°03'0 0.0
2018-Apr-20 21:59N 42°23' W 071°03'0 0.0
2018-Apr-20 21:28N 42°23' W 071°03'0 0.0
2018-Apr-20 21:00N 42°23' W 071°03'0 0.7
2018-Apr-20 20:30N 42°23' W 071°03'0 0.0
2018-Apr-20 19:58N 42°23' W 071°03'0 0.0
2018-Apr-20 19:30N 42°23' W 071°03'1 1.4
2018-Apr-20 18:59N 42°22' W 071°03'4 7.5
2018-Apr-20 18:25N 42°20' W 070°58'4 8.4
2018-Apr-20 17:59N 42°22' W 070°54'4 8.8
2018-Apr-20 17:30N 42°26' W 070°50'4 8.5
2018-Apr-20 17:01N 42°29' W 070°47'0 0.5
2018-Apr-20 16:30N 42°29' W 070°47'0 0.2
2018-Apr-20 16:00N 42°29' W 070°47'0 0.1
2018-Apr-20 15:30N 42°29' W 070°47'0 0.5
2018-Apr-20 15:00N 42°29' W 070°46'0 0.6
2018-Apr-20 14:30N 42°29' W 070°47'4 8.1
2018-Apr-20 14:00N 42°29' W 070°41'4 8.4
2018-Apr-20 13:30N 42°28' W 070°36'1 1.7
2018-Apr-20 13:00N 42°27' W 070°37'4 8.4
2018-Apr-20 12:31N 42°26' W 070°42'4 8.1
2018-Apr-20 12:00N 42°24' W 070°47'4 8.6
2018-Apr-20 11:30N 42°23' W 070°53'5 8.8
2018-Apr-20 10:53N 42°20' W 070°59'3 8.6
2018-Apr-20 10:30N 42°22' W 071°03'1 2.1
2018-Apr-20 09:59N 42°23' W 071°03'0 0.0
2018-Apr-20 09:30N 42°23' W 071°03'0 0.0
2018-Apr-20 09:00N 42°23' W 071°03'0 0.0
2018-Apr-20 08:29N 42°23' W 071°03'0 0.0
2018-Apr-20 07:57N 42°23' W 071°03'0 0.0
2018-Apr-20 07:30N 42°23' W 071°03'0 0.0
2018-Apr-20 07:00N 42°23' W 071°03'0 0.0
2018-Apr-20 06:30N 42°23' W 071°03'0 0.0
2018-Apr-20 06:00N 42°23' W 071°03'0 0.0
2018-Apr-20 05:30N 42°23' W 071°03'0 0.0
2018-Apr-20 05:00N 42°23' W 071°03'0 0.0
2018-Apr-20 04:31N 42°23' W 071°03'0 0.0
2018-Apr-20 04:01N 42°23' W 071°03'0 0.0
2018-Apr-20 03:30N 42°23' W 071°03'0 0.0
2018-Apr-20 03:01N 42°23' W 071°03'0 0.0
2018-Apr-20 02:30N 42°23' W 071°03'0 0.0
2018-Apr-20 02:00N 42°23' W 071°03'0 0.0
2018-Apr-20 01:31N 42°23' W 071°03'0 0.0
2018-Apr-20 01:00N 42°23' W 071°03'0 0.0
2018-Apr-20 00:30N 42°23' W 071°03'0 0.0
2018-Apr-20 00:01N 42°23' W 071°03'0 0.0
2018-Apr-19 23:30N 42°23' W 071°03'0 0.0
2018-Apr-19 22:59N 42°23' W 071°03'1 1.2
2018-Apr-19 22:31N 42°22' W 071°03'4 7.3
2018-Apr-19 22:00N 42°20' W 070°59'4 7.0
2018-Apr-19 21:30N 42°22' W 070°55'4 8.6
2018-Apr-19 20:59N 42°24' W 070°50'4 8.8
2018-Apr-19 20:30N 42°26' W 070°45'4 9.0
2018-Apr-19 20:00N 42°28' W 070°39'2 4.7
2018-Apr-19 19:30N 42°29' W 070°36'0 0.0
2018-Apr-19 19:00N 42°29' W 070°36'0 0.0
2018-Apr-19 18:30N 42°29' W 070°36'0 0.1
2018-Apr-19 18:00N 42°29' W 070°36'0 0.0
2018-Apr-19 17:30N 42°29' W 070°36'0 0.0
2018-Apr-19 17:00N 42°29' W 070°36'0 0.0
2018-Apr-19 16:28N 42°29' W 070°36'0 0.0
2018-Apr-19 16:00N 42°29' W 070°36'0 0.0
2018-Apr-19 15:30N 42°29' W 070°36'0 0.0
2018-Apr-19 15:00N 42°29' W 070°36'0 0.0
2018-Apr-19 14:30N 42°29' W 070°36'0 0.2
2018-Apr-19 14:00N 42°29' W 070°36'1 1.8
2018-Apr-19 13:30N 42°29' W 070°37'4 8.7
2018-Apr-19 13:00N 42°27' W 070°43'4 8.7
2018-Apr-19 12:30N 42°25' W 070°48'4 8.6
2018-Apr-19 12:01N 42°23' W 070°53'4 8.6
2018-Apr-19 11:29N 42°20' W 070°58'4 8.4
2018-Apr-19 11:00N 42°22' W 071°03'1 0.2
2018-Apr-19 05:59N 42°23' W 071°03'0 0.0
2018-Apr-19 05:29N 42°23' W 071°03'0 0.0
2018-Apr-19 04:41N 42°23' W 071°03'0 0.0
2018-Apr-19 02:14N 42°23' W 071°03'0 0.0
2018-Apr-19 00:50N 42°23' W 071°03'0 0.0
2018-Apr-18 15:29N 42°23' W 071°03'0 0.2
2018-Apr-18 13:51N 42°23' W 071°03'0 0.2
2018-Apr-18 13:30N 42°23' W 071°03'2 2.7
2018-Apr-18 12:55N 42°22' W 071°02'0 0.0
2018-Apr-18 12:28N 42°22' W 071°02'0 0.0
2018-Apr-18 11:55N 42°22' W 071°02'0 0.0
2018-Apr-18 11:25N 42°22' W 071°02'0 0.0
2018-Apr-18 10:57N 42°22' W 071°02'1 2.6
2018-Apr-18 10:27N 42°23' W 071°03'0 0.0
2018-Apr-18 09:52N 42°23' W 071°03'0 0.0
2018-Apr-18 09:30N 42°23' W 071°03'0 0.0
2018-Apr-18 09:00N 42°23' W 071°03'0 0.0
2018-Apr-18 08:29N 42°23' W 071°03'0 0.0
2018-Apr-18 08:00N 42°23' W 071°03'0 0.0
2018-Apr-18 07:29N 42°23' W 071°03'0 0.0
2018-Apr-18 06:53N 42°23' W 071°03'0 0.0
2018-Apr-18 06:23N 42°23' W 071°03'0 0.0
2018-Apr-18 05:56N 42°23' W 071°03'0 0.0
2018-Apr-18 05:28N 42°23' W 071°03'0 0.0
2018-Apr-18 04:58N 42°23' W 071°03'0 0.0
2018-Apr-18 04:29N 42°23' W 071°03'0 0.0
2018-Apr-18 03:55N 42°23' W 071°03'0 0.0
2018-Apr-18 03:28N 42°23' W 071°03'0 0.0
2018-Apr-18 02:53N 42°23' W 071°03'0 0.0
2018-Apr-18 02:25N 42°23' W 071°03'0 0.0
2018-Apr-18 01:59N 42°23' W 071°03'0 0.0
2018-Apr-18 01:29N 42°23' W 071°03'0 0.0
2018-Apr-18 00:43N 42°23' W 071°03'0 0.0
2018-Apr-18 00:28N 42°23' W 071°03'0 0.0
2018-Apr-17 23:52N 42°23' W 071°03'0 0.0
2018-Apr-17 23:22N 42°23' W 071°03'0 0.0
2018-Apr-17 22:58N 42°23' W 071°03'0 0.0
2018-Apr-17 22:19N 42°23' W 071°03'0 0.0
2018-Apr-17 21:13N 42°23' W 071°03'0 0.0
2018-Apr-17 20:59N 42°23' W 071°03'0 0.0
2018-Apr-17 20:09N 42°23' W 071°03'0 0.0
2018-Apr-17 19:58N 42°23' W 071°03'0 0.0
2018-Apr-17 19:28N 42°23' W 071°03'0 0.0
2018-Apr-17 18:58N 42°23' W 071°03'0 0.0
2018-Apr-17 18:28N 42°23' W 071°03'0 0.0
2018-Apr-17 17:58N 42°23' W 071°03'0 0.0
2018-Apr-17 17:28N 42°23' W 071°03'0 0.0
2018-Apr-17 16:55N 42°23' W 071°03'0 0.0
2018-Apr-17 16:28N 42°23' W 071°03'0 0.0
2018-Apr-17 15:58N 42°23' W 071°03'0 0.0
2018-Apr-17 15:28N 42°23' W 071°03'0 0.0
2018-Apr-17 14:58N 42°23' W 071°03'0 0.0
2018-Apr-17 14:28N 42°23' W 071°03'0 0.5
2018-Apr-17 14:00N 42°23' W 071°03'0 0.4
2018-Apr-17 13:28N 42°23' W 071°03'0 0.0
2018-Apr-17 12:59N 42°23' W 071°03'0 0.0
2018-Apr-17 12:29N 42°23' W 071°03'0 0.0
2018-Apr-17 11:59N 42°23' W 071°03'0 0.0
2018-Apr-17 11:30N 42°23' W 071°03'0 0.2
2018-Apr-17 09:57N 42°23' W 071°03'0 0.0
2018-Apr-17 08:15N 42°23' W 071°03'0 0.0
2018-Apr-17 08:00N 42°23' W 071°03'0 0.0
2018-Apr-17 07:30N 42°23' W 071°03'0 0.0
2018-Apr-17 07:00N 42°23' W 071°03'0 0.0
2018-Apr-17 06:30N 42°23' W 071°03'0 0.0
2018-Apr-17 06:00N 42°23' W 071°03'0 0.0
2018-Apr-17 05:27N 42°23' W 071°03'0 0.0
2018-Apr-17 05:00N 42°23' W 071°03'0 0.0
2018-Apr-17 04:30N 42°23' W 071°03'0 0.0
2018-Apr-17 04:00N 42°23' W 071°03'0 0.0
2018-Apr-17 03:30N 42°23' W 071°03'0 0.0
2018-Apr-17 03:00N 42°23' W 071°03'0 0.0
2018-Apr-17 02:30N 42°23' W 071°03'0 0.0
2018-Apr-17 02:00N 42°23' W 071°03'0 0.0
2018-Apr-17 01:30N 42°23' W 071°03'0 0.0
2018-Apr-17 01:00N 42°23' W 071°03'0 0.0
2018-Apr-17 00:30N 42°23' W 071°03'0 0.0
2018-Apr-17 00:00N 42°23' W 071°03'0 0.0
2018-Apr-16 23:30N 42°23' W 071°03'0 0.0
2018-Apr-16 23:00N 42°23' W 071°03'0 0.0
2018-Apr-16 22:30N 42°23' W 071°03'0 0.0
2018-Apr-16 22:00N 42°23' W 071°03'0 0.0
2018-Apr-16 21:30N 42°23' W 071°03'0 0.0
2018-Apr-16 21:00N 42°23' W 071°03'0 0.0
2018-Apr-16 20:30N 42°23' W 071°03'0 0.0
2018-Apr-16 20:00N 42°23' W 071°03'0 0.0
2018-Apr-16 19:30N 42°23' W 071°03'0 0.0
2018-Apr-16 19:00N 42°23' W 071°03'0 0.0
2018-Apr-16 18:30N 42°23' W 071°03'0 0.0
2018-Apr-16 18:00N 42°23' W 071°03'0 0.0
2018-Apr-16 17:30N 42°23' W 071°03'0 0.0
2018-Apr-16 17:00N 42°23' W 071°03'0 0.0
2018-Apr-16 16:30N 42°23' W 071°03'0 0.0
2018-Apr-16 16:00N 42°23' W 071°03'0 0.0
2018-Apr-16 15:30N 42°23' W 071°03'0 0.0
2018-Apr-16 15:00N 42°23' W 071°03'0 0.0
2018-Apr-16 14:30N 42°23' W 071°03'0 0.0
2018-Apr-16 14:00N 42°23' W 071°03'0 0.0
2018-Apr-16 13:30N 42°23' W 071°03'0 0.0
2018-Apr-16 13:00N 42°23' W 071°03'0 0.0
2018-Apr-16 12:30N 42°23' W 071°03'0 0.0
2018-Apr-16 12:00N 42°23' W 071°03'0 0.0
2018-Apr-16 11:30N 42°23' W 071°03'0 0.0
2018-Apr-16 11:00N 42°23' W 071°03'0 0.0
2018-Apr-16 10:30N 42°23' W 071°03'0 0.0
2018-Apr-16 09:57N 42°23' W 071°03'0 0.0
2018-Apr-16 09:30N 42°23' W 071°03'0 0.0
2018-Apr-16 09:00N 42°23' W 071°03'0 0.0
2018-Apr-16 08:30N 42°23' W 071°03'0 0.0
2018-Apr-16 08:00N 42°23' W 071°03'0 0.0
2018-Apr-16 07:30N 42°23' W 071°03'0 0.0
2018-Apr-16 07:00N 42°23' W 071°03'0 0.0
2018-Apr-16 06:31N 42°23' W 071°03'0 0.0
2018-Apr-16 06:00N 42°23' W 071°03'0 0.0
2018-Apr-16 05:30N 42°23' W 071°03'0 0.0
2018-Apr-16 05:00N 42°23' W 071°03'0 0.0
2018-Apr-16 04:30N 42°23' W 071°03'0 0.0
2018-Apr-16 04:00N 42°23' W 071°03'0 0.0
2018-Apr-16 03:30N 42°23' W 071°03'0 0.0
2018-Apr-16 03:00N 42°23' W 071°03'0 0.0
2018-Apr-16 02:30N 42°23' W 071°03'0 0.0
2018-Apr-16 02:00N 42°23' W 071°03'0 0.0
2018-Apr-16 01:30N 42°23' W 071°03'0 0.0
2018-Apr-16 01:00N 42°23' W 071°03'0 0.0
2018-Apr-16 00:30N 42°23' W 071°03'0 0.0
2018-Apr-16 00:01N 42°23' W 071°03'0 0.0
2018-Apr-15 23:30N 42°23' W 071°03'0 0.0
2018-Apr-15 23:00N 42°23' W 071°03'0 0.0
2018-Apr-15 22:30N 42°23' W 071°03'0 0.0
2018-Apr-15 22:00N 42°23' W 071°03'0 0.0
2018-Apr-15 21:30N 42°23' W 071°03'0 0.0
2018-Apr-15 21:00N 42°23' W 071°03'0 0.0
2018-Apr-15 20:30N 42°23' W 071°03'0 0.0
2018-Apr-15 20:00N 42°23' W 071°03'0 0.0
2018-Apr-15 19:30N 42°23' W 071°03'0 0.0
2018-Apr-15 19:00N 42°23' W 071°03'0 0.0
2018-Apr-15 18:30N 42°23' W 071°03'0 0.0
2018-Apr-15 18:00N 42°23' W 071°03'0 0.0
2018-Apr-15 17:30N 42°23' W 071°03'0 0.0
2018-Apr-15 17:00N 42°23' W 071°03'0 0.0
2018-Apr-15 16:30N 42°23' W 071°03'0 0.0
2018-Apr-15 16:00N 42°23' W 071°03'0 0.0
2018-Apr-15 15:30N 42°23' W 071°03'0 0.0
2018-Apr-15 15:00N 42°23' W 071°03'0 0.0
2018-Apr-15 14:30N 42°23' W 071°03'0 0.0
2018-Apr-15 14:00N 42°23' W 071°03'0 0.0
2018-Apr-15 13:30N 42°23' W 071°03'0 0.0
2018-Apr-15 13:00N 42°23' W 071°03'0 0.0
2018-Apr-15 12:30N 42°23' W 071°03'0 0.0
2018-Apr-15 12:00N 42°23' W 071°03'0 0.0
2018-Apr-15 11:30N 42°23' W 071°03'0 0.0
2018-Apr-15 11:00N 42°23' W 071°03'0 0.0
2018-Apr-15 10:30N 42°23' W 071°03'0 0.0
2018-Apr-15 10:00N 42°23' W 071°03'0 0.0
2018-Apr-15 09:30N 42°23' W 071°03'0 0.0
2018-Apr-15 08:57N 42°23' W 071°03'0 0.0
2018-Apr-15 08:30N 42°23' W 071°03'0 0.0
2018-Apr-15 08:00N 42°23' W 071°03'0 0.0
2018-Apr-15 07:30N 42°23' W 071°03'0 0.0
2018-Apr-15 06:57N 42°23' W 071°03'0 0.0
2018-Apr-15 06:30N 42°23' W 071°03'0 0.0
2018-Apr-15 06:00N 42°23' W 071°03'0 0.0
2018-Apr-15 05:30N 42°23' W 071°03'0 0.0
2018-Apr-15 05:00N 42°23' W 071°03'0 0.0
2018-Apr-15 04:30N 42°23' W 071°03'0 0.0
2018-Apr-15 04:00N 42°23' W 071°03'0 0.0
2018-Apr-15 03:30N 42°23' W 071°03'0 0.0
2018-Apr-15 03:00N 42°23' W 071°03'0 0.0
2018-Apr-15 02:30N 42°23' W 071°03'0 0.0
2018-Apr-15 02:00N 42°23' W 071°03'0 0.0
2018-Apr-15 01:30N 42°23' W 071°03'0 0.0
2018-Apr-15 01:00N 42°23' W 071°03'0 0.0
2018-Apr-15 00:27N 42°23' W 071°03'0 0.0
2018-Apr-15 00:00N 42°23' W 071°03'0 0.0
2018-Apr-14 23:30N 42°23' W 071°03'0 0.0
2018-Apr-14 23:00N 42°23' W 071°03'0 0.0
2018-Apr-14 22:30N 42°23' W 071°03'0 0.0
2018-Apr-14 22:00N 42°23' W 071°03'0 0.0
2018-Apr-14 21:30N 42°23' W 071°03'0 0.0
2018-Apr-14 21:00N 42°23' W 071°03'0 0.0
2018-Apr-14 20:30N 42°23' W 071°03'0 0.0
2018-Apr-14 20:00N 42°23' W 071°03'0 0.0
2018-Apr-14 19:30N 42°23' W 071°03'0 0.0
2018-Apr-14 19:00N 42°23' W 071°03'0 0.0
2018-Apr-14 18:30N 42°23' W 071°03'0 0.0
2018-Apr-14 18:00N 42°23' W 071°03'0 0.0
2018-Apr-14 17:27N 42°23' W 071°03'0 0.0
2018-Apr-14 17:00N 42°23' W 071°03'0 0.0
2018-Apr-14 16:30N 42°23' W 071°03'0 0.0
2018-Apr-14 16:00N 42°23' W 071°03'0 0.0
2018-Apr-14 15:30N 42°23' W 071°03'0 0.0
2018-Apr-14 15:00N 42°23' W 071°03'0 0.0
2018-Apr-14 14:30N 42°23' W 071°03'0 0.0
2018-Apr-14 14:00N 42°23' W 071°03'0 0.0
2018-Apr-14 13:30N 42°23' W 071°03'0 0.0
2018-Apr-14 13:00N 42°23' W 071°03'0 0.0
2018-Apr-14 12:30N 42°23' W 071°03'0 0.0
2018-Apr-14 12:00N 42°23' W 071°03'0 0.0
2018-Apr-14 11:30N 42°23' W 071°03'0 0.0
2018-Apr-14 11:00N 42°23' W 071°03'0 0.0
2018-Apr-14 10:30N 42°23' W 071°03'0 0.0
2018-Apr-14 09:57N 42°23' W 071°03'0 0.0
2018-Apr-14 09:30N 42°23' W 071°03'0 0.0
2018-Apr-14 09:00N 42°23' W 071°03'0 0.0
2018-Apr-14 08:30N 42°23' W 071°03'0 0.0
2018-Apr-14 08:00N 42°23' W 071°03'0 0.0
2018-Apr-14 07:30N 42°23' W 071°03'0 0.0
2018-Apr-14 07:00N 42°23' W 071°03'0 0.0
2018-Apr-14 06:30N 42°23' W 071°03'0 0.0
2018-Apr-14 06:00N 42°23' W 071°03'0 0.0
2018-Apr-14 05:30N 42°23' W 071°03'0 0.0
2018-Apr-14 05:00N 42°23' W 071°03'0 0.0
2018-Apr-14 04:30N 42°23' W 071°03'0 0.0
2018-Apr-14 04:00N 42°23' W 071°03'0 0.0
2018-Apr-14 03:27N 42°23' W 071°03'0 0.0
2018-Apr-14 03:00N 42°23' W 071°03'0 0.0
2018-Apr-14 02:30N 42°23' W 071°03'0 0.0
2018-Apr-14 02:00N 42°23' W 071°03'0 0.0
2018-Apr-14 01:30N 42°23' W 071°03'0 0.0
2018-Apr-14 01:00N 42°23' W 071°03'0 0.0
2018-Apr-14 00:30N 42°23' W 071°03'0 0.0
2018-Apr-14 00:00N 42°23' W 071°03'0 0.0
2018-Apr-13 23:30N 42°23' W 071°03'0 0.0
2018-Apr-13 23:00N 42°23' W 071°03'0 0.0
2018-Apr-13 22:30N 42°23' W 071°03'0 0.0
2018-Apr-13 22:00N 42°23' W 071°03'0 0.0
2018-Apr-13 21:30N 42°23' W 071°03'0 0.0
2018-Apr-13 21:00N 42°23' W 071°03'0 0.0
2018-Apr-13 20:30N 42°23' W 071°03'0 0.0
2018-Apr-13 20:00N 42°23' W 071°03'0 0.0
2018-Apr-13 19:30N 42°23' W 071°03'0 0.0
2018-Apr-13 19:00N 42°23' W 071°03'0 0.0
2018-Apr-13 18:30N 42°23' W 071°03'0 0.0
2018-Apr-13 18:00N 42°23' W 071°03'0 0.0
2018-Apr-13 17:30N 42°23' W 071°03'0 0.0
2018-Apr-13 17:00N 42°23' W 071°03'0 0.0
2018-Apr-13 16:30N 42°23' W 071°03'0 0.0
2018-Apr-13 16:00N 42°23' W 071°03'0 0.0
2018-Apr-13 15:27N 42°23' W 071°03'0 0.0
2018-Apr-13 15:00N 42°23' W 071°03'0 0.0
2018-Apr-13 14:30N 42°23' W 071°03'0 0.0
2018-Apr-13 14:00N 42°23' W 071°03'0 0.0
2018-Apr-13 13:30N 42°23' W 071°03'0 0.0
2018-Apr-13 13:00N 42°23' W 071°03'0 0.0
2018-Apr-13 12:30N 42°23' W 071°03'0 0.0
2018-Apr-13 12:00N 42°23' W 071°03'0 0.0
2018-Apr-13 11:30N 42°23' W 071°03'0 0.0
2018-Apr-13 11:00N 42°23' W 071°03'0 0.0
2018-Apr-13 10:30N 42°23' W 071°03'0 0.0
2018-Apr-13 10:00N 42°23' W 071°03'0 0.0
2018-Apr-13 09:27N 42°23' W 071°03'0 0.0
2018-Apr-13 09:00N 42°23' W 071°03'0 0.0
2018-Apr-13 08:30N 42°23' W 071°03'0 0.0
2018-Apr-13 08:00N 42°23' W 071°03'0 0.0
2018-Apr-13 07:30N 42°23' W 071°03'0 0.0
2018-Apr-13 07:00N 42°23' W 071°03'0 0.0
2018-Apr-13 06:30N 42°23' W 071°03'0 0.0
2018-Apr-13 05:57N 42°23' W 071°03'0 0.0
2018-Apr-13 05:30N 42°23' W 071°03'0 0.0
2018-Apr-13 05:00N 42°23' W 071°03'0 0.0
2018-Apr-13 04:30N 42°23' W 071°03'0 0.0
2018-Apr-13 04:00N 42°23' W 071°03'0 0.0
2018-Apr-13 03:30N 42°23' W 071°03'0 0.0
2018-Apr-13 03:00N 42°23' W 071°03'0 0.0
2018-Apr-13 02:30N 42°23' W 071°03'0 0.0
2018-Apr-13 02:00N 42°23' W 071°03'0 0.0
2018-Apr-13 01:30N 42°23' W 071°03'0 0.0
2018-Apr-13 01:00N 42°23' W 071°03'0 0.0
2018-Apr-13 00:30N 42°23' W 071°03'0 0.0
2018-Apr-13 00:00N 42°23' W 071°03'0 0.0
2018-Apr-12 23:30N 42°23' W 071°03'0 0.0
2018-Apr-12 23:00N 42°23' W 071°03'0 0.0
2018-Apr-12 22:30N 42°23' W 071°03'0 0.0
2018-Apr-12 21:57N 42°23' W 071°03'0 0.0
2018-Apr-12 21:30N 42°23' W 071°03'0 0.0
2018-Apr-12 20:57N 42°23' W 071°03'0 0.0
2018-Apr-12 20:30N 42°23' W 071°03'0 0.0
2018-Apr-12 20:00N 42°23' W 071°03'0 0.0
2018-Apr-12 19:30N 42°23' W 071°03'0 0.0
2018-Apr-12 19:00N 42°23' W 071°03'0 0.0
2018-Apr-12 18:30N 42°23' W 071°03'0 0.0
2018-Apr-12 18:00N 42°23' W 071°03'0 0.0
2018-Apr-12 17:30N 42°23' W 071°03'0 0.0
2018-Apr-12 17:00N 42°23' W 071°03'0 0.0
2018-Apr-12 16:30N 42°23' W 071°03'0 0.0
2018-Apr-12 16:00N 42°23' W 071°03'0 0.0
2018-Apr-12 15:30N 42°23' W 071°03'0 0.0
2018-Apr-12 15:00N 42°23' W 071°03'0 0.0
2018-Apr-12 14:27N 42°23' W 071°03'0 0.0
2018-Apr-12 14:00N 42°23' W 071°03'0 0.0
2018-Apr-12 13:30N 42°23' W 071°03'0 0.0
2018-Apr-12 13:00N 42°23' W 071°03'0 0.0
2018-Apr-12 12:30N 42°23' W 071°03'0 0.0
2018-Apr-12 12:00N 42°23' W 071°03'0 0.0
2018-Apr-12 11:30N 42°23' W 071°03'0 0.0
2018-Apr-12 11:00N 42°23' W 071°03'0 0.0
2018-Apr-12 10:30N 42°23' W 071°03'0 0.0
2018-Apr-12 10:00N 42°23' W 071°03'0 0.0
2018-Apr-12 09:30N 42°23' W 071°03'0 0.0
2018-Apr-12 09:00N 42°23' W 071°03'0 0.0
2018-Apr-12 08:30N 42°23' W 071°03'0 0.0
2018-Apr-12 08:00N 42°23' W 071°03'0 0.0
2018-Apr-12 07:30N 42°23' W 071°03'0 0.0
2018-Apr-12 07:00N 42°23' W 071°03'0 0.0
2018-Apr-12 06:30N 42°23' W 071°03'0 0.0
2018-Apr-12 06:00N 42°23' W 071°03'0 0.0
2018-Apr-12 05:30N 42°23' W 071°03'0 0.0
2018-Apr-12 05:00N 42°23' W 071°03'0 0.0
2018-Apr-12 04:30N 42°23' W 071°03'0 0.0
2018-Apr-12 04:00N 42°23' W 071°03'0 0.0
2018-Apr-12 03:30N 42°23' W 071°03'0 0.0
2018-Apr-12 03:00N 42°23' W 071°03'0 0.0
2018-Apr-12 02:30N 42°23' W 071°03'0 0.0
2018-Apr-12 02:00N 42°23' W 071°03'0 0.0
2018-Apr-12 01:30N 42°23' W 071°03'0 0.0
2018-Apr-12 01:00N 42°23' W 071°03'0 0.0
2018-Apr-12 00:30N 42°23' W 071°03'0 0.0
2018-Apr-12 00:00N 42°23' W 071°03'0 0.0
2018-Apr-11 23:30N 42°23' W 071°03'0 0.0
2018-Apr-11 23:00N 42°23' W 071°03'0 0.0
2018-Apr-11 22:30N 42°23' W 071°03'0 0.0
2018-Apr-11 22:00N 42°23' W 071°03'0 0.0
2018-Apr-11 21:30N 42°23' W 071°03'0 0.0
2018-Apr-11 21:00N 42°23' W 071°03'0 0.0
2018-Apr-11 20:30N 42°23' W 071°03'0 0.0
2018-Apr-11 20:00N 42°23' W 071°03'0 0.0
2018-Apr-11 19:27N 42°23' W 071°03'0 0.0
2018-Apr-11 19:00N 42°23' W 071°03'0 0.0
2018-Apr-11 18:30N 42°23' W 071°03'0 0.0
2018-Apr-11 18:00N 42°23' W 071°03'0 0.0
2018-Apr-11 17:30N 42°23' W 071°03'0 0.0
2018-Apr-11 17:00N 42°23' W 071°03'0 0.0
2018-Apr-11 16:30N 42°23' W 071°03'0 0.0
2018-Apr-11 16:00N 42°23' W 071°03'0 0.0
2018-Apr-11 15:27N 42°23' W 071°03'0 0.0
2018-Apr-11 15:00N 42°23' W 071°03'0 0.0
2018-Apr-11 14:30N 42°23' W 071°03'0 0.0
2018-Apr-11 14:00N 42°23' W 071°03'0 0.0
2018-Apr-11 13:30N 42°23' W 071°03'0 0.0
2018-Apr-11 13:00N 42°23' W 071°03'0 0.0
2018-Apr-11 12:30N 42°23' W 071°03'0 0.0
2018-Apr-11 12:00N 42°23' W 071°03'0 0.0
2018-Apr-11 11:30N 42°23' W 071°03'0 0.0
2018-Apr-11 11:00N 42°23' W 071°03'0 0.0
2018-Apr-11 10:30N 42°23' W 071°03'0 0.0
2018-Apr-11 10:00N 42°23' W 071°03'0 0.0
2018-Apr-11 09:27N 42°23' W 071°03'0 0.0
2018-Apr-11 08:57N 42°23' W 071°03'0 0.0
2018-Apr-11 08:27N 42°23' W 071°03'  

Dump ship's entire track history